createdAt,value
2018-02-19T00:00:11.236Z,4.31
2018-02-19T00:02:38.724Z,4.23
2018-02-19T00:05:06.276Z,4.26
2018-02-19T00:07:33.786Z,4.33
2018-02-19T00:10:01.264Z,4.33
2018-02-19T00:12:28.784Z,4.35
2018-02-19T00:14:56.267Z,4.35
2018-02-19T00:17:23.777Z,4.37
2018-02-19T00:19:51.267Z,4.42
2018-02-19T00:22:19.400Z,4.32
2018-02-19T00:24:46.941Z,4.36
2018-02-19T00:27:14.491Z,4.33
2018-02-19T00:29:42.088Z,4.34
2018-02-19T00:32:09.627Z,4.38
2018-02-19T00:34:37.198Z,4.11
2018-02-19T00:37:04.695Z,4.28
2018-02-19T00:39:32.231Z,4.38
2018-02-19T00:41:59.768Z,4.42
2018-02-19T00:44:27.333Z,4.17
2018-02-19T00:46:54.841Z,3.97
2018-02-19T00:49:22.413Z,3.88
2018-02-19T00:51:50.008Z,3.97
2018-02-19T00:54:17.491Z,3.93
2018-02-19T00:56:45.688Z,3.83
2018-02-19T00:59:13.212Z,3.82
2018-02-19T01:01:40.755Z,3.65
2018-02-19T01:04:08.352Z,3.68
2018-02-19T01:06:35.866Z,3.64
2018-02-19T01:09:03.448Z,3.67
2018-02-19T01:11:31.783Z,3.65
2018-02-19T01:13:59.301Z,3.65
2018-02-19T01:16:27.423Z,3.65
2018-02-19T01:18:54.942Z,3.57
2018-02-19T01:21:22.483Z,3.52
2018-02-19T01:23:50.029Z,3.45
2018-02-19T01:26:17.527Z,3.42
2018-02-19T01:28:45.027Z,3.37
2018-02-19T01:31:12.540Z,3.39
2018-02-19T01:33:40.038Z,3.43
2018-02-19T01:36:07.536Z,3.37
2018-02-19T01:38:35.013Z,3.36
2018-02-19T01:41:02.537Z,3.24
2018-02-19T01:43:30.026Z,3.11
2018-02-19T01:45:57.527Z,3.11
2018-02-19T01:48:25.104Z,3.07
2018-02-19T01:50:52.593Z,3.11
2018-02-19T01:53:20.106Z,3.13
2018-02-19T01:55:47.597Z,3.14
2018-02-19T01:58:15.114Z,3.13
2018-02-19T02:00:42.650Z,3.07
2018-02-19T02:03:10.159Z,2.98
2018-02-19T02:05:37.656Z,2.98
2018-02-19T02:08:05.175Z,2.96
2018-02-19T02:10:32.658Z,2.93
2018-02-19T02:13:00.221Z,2.98
2018-02-19T02:15:27.728Z,3.02
2018-02-19T02:17:55.225Z,2.91
2018-02-19T02:20:22.879Z,2.87
2018-02-19T02:22:51.078Z,2.87
2018-02-19T02:25:18.617Z,2.93
2018-02-19T02:27:46.097Z,2.97
2018-02-19T02:30:13.603Z,2.90
2018-02-19T02:32:41.088Z,2.95
2018-02-19T02:35:08.598Z,2.94
2018-02-19T02:37:36.123Z,2.97
2018-02-19T02:40:03.603Z,3.02
2018-02-19T02:42:31.122Z,3.04
2018-02-19T02:44:58.644Z,3.06
2018-02-19T02:47:26.172Z,3.08
2018-02-19T02:49:53.696Z,3.13
2018-02-19T02:52:21.201Z,3.17
2018-02-19T02:54:48.683Z,3.15
2018-02-19T02:57:16.199Z,3.12
2018-02-19T02:59:43.773Z,3.12
2018-02-19T03:02:11.263Z,3.13
2018-02-19T03:04:38.980Z,3.12
2018-02-19T03:07:06.634Z,3.11
2018-02-19T03:09:34.143Z,2.88
2018-02-19T03:12:01.644Z,2.70
2018-02-19T03:14:29.730Z,2.55
2018-02-19T03:16:57.220Z,2.46
2018-02-19T03:19:24.871Z,2.49
2018-02-19T03:21:52.449Z,2.57
2018-02-19T03:24:19.987Z,2.69
2018-02-19T03:26:47.602Z,2.75
2018-02-19T03:29:15.111Z,2.79
2018-02-19T03:31:42.629Z,2.94
2018-02-19T03:34:10.116Z,3.04
2018-02-19T03:36:37.631Z,2.99
2018-02-19T03:39:05.227Z,3.03
2018-02-19T03:41:32.751Z,3.03
2018-02-19T03:44:00.264Z,3.07
2018-02-19T03:46:27.783Z,3.10
2018-02-19T03:48:55.299Z,3.07
2018-02-19T03:51:22.783Z,3.07
2018-02-19T03:53:50.301Z,3.11
2018-02-19T03:56:17.786Z,3.11
2018-02-19T03:58:45.403Z,3.13
2018-02-19T04:01:12.885Z,3.19
2018-02-19T04:03:40.425Z,3.12
2018-02-19T04:06:07.975Z,3.13
2018-02-19T04:08:35.562Z,3.16
2018-02-19T04:11:03.205Z,3.12
2018-02-19T04:13:32.098Z,3.10
2018-02-19T04:15:59.635Z,3.15
2018-02-19T04:18:27.129Z,3.20
2018-02-19T04:20:54.844Z,3.12
2018-02-19T04:23:22.339Z,3.11
2018-02-19T04:25:49.844Z,3.02
2018-02-19T04:28:17.360Z,3.01
2018-02-19T04:30:44.870Z,2.95
2018-02-19T04:33:12.428Z,2.99
2018-02-19T04:35:40.049Z,3.03
2018-02-19T04:38:07.701Z,3.01
2018-02-19T04:40:35.214Z,3.06
2018-02-19T04:43:07.339Z,3.05
2018-02-19T04:48:44.994Z,2.91
2018-02-19T04:51:12.491Z,2.89
2018-02-19T04:53:39.977Z,2.86
2018-02-19T04:56:07.683Z,2.75
2018-02-19T04:58:35.279Z,2.66
2018-02-19T05:01:02.892Z,2.68
2018-02-19T05:03:30.476Z,2.67
2018-02-19T05:05:58.015Z,2.67
2018-02-19T05:08:25.690Z,2.56
2018-02-19T05:10:57.205Z,2.59
2018-02-19T05:13:24.811Z,2.61
2018-02-19T05:15:52.971Z,2.60
2018-02-19T05:18:20.549Z,2.63
2018-02-19T05:20:48.046Z,2.63
2018-02-19T05:23:15.660Z,2.71
2018-02-19T05:25:43.143Z,2.75
2018-02-19T05:28:10.645Z,2.86
2018-02-19T05:30:38.177Z,2.86
2018-02-19T05:33:05.674Z,2.93
2018-02-19T05:35:33.165Z,2.96
2018-02-19T05:38:00.704Z,3.01
2018-02-19T05:40:28.258Z,2.96
2018-02-19T05:42:55.767Z,2.98
2018-02-19T05:45:23.421Z,2.93
2018-02-19T05:47:50.949Z,2.96
2018-02-19T05:50:18.683Z,3.00
2018-02-19T05:52:46.246Z,2.87
2018-02-19T05:55:13.761Z,2.76
2018-02-19T05:57:41.439Z,2.76
2018-02-19T06:00:08.923Z,2.81
2018-02-19T06:02:36.444Z,2.85
2018-02-19T06:05:03.933Z,2.91
2018-02-19T06:07:32.114Z,2.89
2018-02-19T06:09:59.635Z,2.85
2018-02-19T06:12:27.175Z,2.89
2018-02-19T06:14:54.647Z,2.91
2018-02-19T06:17:22.157Z,3.01
2018-02-19T06:19:49.747Z,3.07
2018-02-19T06:22:17.250Z,3.06
2018-02-19T06:24:44.894Z,2.97
2018-02-19T06:27:12.564Z,3.02
2018-02-19T06:29:40.074Z,3.06
2018-02-19T06:32:07.565Z,3.09
2018-02-19T06:34:35.071Z,3.05
2018-02-19T06:37:02.584Z,3.07
2018-02-19T06:39:30.133Z,3.14
2018-02-19T06:41:57.726Z,3.17
2018-02-19T06:44:25.226Z,3.14
2018-02-19T06:46:52.724Z,3.12
2018-02-19T06:49:20.206Z,3.01
2018-02-19T06:51:47.729Z,3.02
2018-02-19T06:54:15.208Z,3.00
2018-02-19T06:56:42.699Z,3.03
2018-02-19T07:01:43.883Z,3.10
2018-02-19T07:04:11.523Z,3.05
2018-02-19T07:06:39.011Z,3.08
2018-02-19T07:11:40.262Z,3.18
2018-02-19T07:14:07.796Z,3.16
2018-02-19T07:16:35.310Z,3.26
2018-02-19T07:19:09.742Z,3.24
2018-02-19T07:21:38.108Z,3.14
2018-02-19T07:24:05.727Z,3.09
2018-02-19T07:26:33.343Z,3.12
2018-02-19T07:29:00.819Z,3.17
2018-02-19T07:31:28.557Z,3.13
2018-02-19T07:33:56.106Z,2.86
2018-02-19T07:36:24.724Z,2.78
2018-02-19T07:38:52.249Z,2.74
2018-02-19T07:41:19.854Z,2.85
2018-02-19T07:43:47.439Z,2.96
2018-02-19T07:46:14.987Z,3.09
2018-02-19T07:48:42.572Z,3.07
2018-02-19T07:51:10.087Z,3.09
2018-02-19T07:53:41.642Z,3.11
2018-02-19T07:56:09.278Z,3.11
2018-02-19T07:58:36.784Z,3.09
2018-02-19T08:01:04.433Z,3.13
2018-02-19T08:03:31.929Z,3.07
2018-02-19T08:05:59.443Z,3.00
2018-02-19T08:08:26.930Z,3.01
2018-02-19T08:10:54.527Z,2.77
2018-02-19T08:13:22.084Z,2.99
2018-02-19T08:15:49.678Z,3.07
2018-02-19T08:18:18.029Z,3.07
2018-02-19T08:20:45.475Z,3.10
2018-02-19T08:23:12.979Z,3.23
2018-02-19T08:25:40.474Z,3.27
2018-02-19T08:28:07.984Z,3.32
2018-02-19T08:30:35.608Z,3.33
2018-02-19T08:33:03.097Z,3.31
2018-02-19T08:35:30.695Z,3.37
2018-02-19T08:37:58.275Z,3.26
2018-02-19T08:40:25.834Z,3.17
2018-02-19T08:42:53.323Z,3.17
2018-02-19T08:45:20.844Z,3.22
2018-02-19T08:47:48.323Z,3.23
2018-02-19T08:50:15.857Z,3.25
2018-02-19T08:52:43.361Z,3.25
2018-02-19T08:55:10.870Z,3.30
2018-02-19T08:57:38.363Z,3.28
2018-02-19T09:00:05.853Z,3.20
2018-02-19T09:02:33.466Z,3.31
2018-02-19T09:05:01.100Z,3.21
2018-02-19T09:07:29.525Z,3.24
2018-02-19T09:09:57.016Z,3.24
2018-02-19T09:12:24.571Z,3.20
2018-02-19T09:14:52.173Z,3.17
2018-02-19T09:17:19.738Z,3.01
2018-02-19T09:19:47.380Z,3.07
2018-02-19T09:22:14.908Z,3.18
2018-02-19T09:24:42.408Z,3.22
2018-02-19T09:27:09.898Z,3.28
2018-02-19T09:29:37.503Z,3.23
2018-02-19T09:32:04.976Z,3.29
2018-02-19T09:34:32.732Z,3.34
2018-02-19T09:37:00.228Z,3.29
2018-02-19T09:39:28.040Z,3.26
2018-02-19T09:41:55.624Z,3.27
2018-02-19T09:44:23.214Z,3.39
2018-02-19T09:46:50.763Z,3.51
2018-02-19T09:49:18.257Z,3.59
2018-02-19T09:51:45.934Z,3.67
2018-02-19T09:54:13.611Z,3.57
2018-02-19T09:56:41.276Z,3.67
2018-02-19T09:59:08.820Z,3.68
2018-02-19T10:01:36.357Z,3.69
2018-02-19T10:04:03.862Z,3.70
2018-02-19T10:06:31.394Z,3.79
2018-02-19T10:08:58.898Z,3.78
2018-02-19T10:11:26.421Z,3.78
2018-02-19T10:13:53.931Z,3.82
2018-02-19T10:16:21.428Z,3.98
2018-02-19T10:18:49.021Z,4.06
2018-02-19T10:21:16.543Z,4.15
2018-02-19T10:23:44.059Z,4.30
2018-02-19T10:26:11.544Z,4.34
2018-02-19T10:28:39.099Z,4.34
2018-02-19T10:31:06.679Z,4.31
2018-02-19T10:33:34.172Z,4.37
2018-02-19T10:36:01.698Z,4.49
2018-02-19T10:38:29.315Z,4.53
2018-02-19T10:40:56.904Z,4.50
2018-02-19T10:43:24.517Z,4.53
2018-02-19T10:45:52.114Z,4.50
2018-02-19T10:48:19.645Z,4.57
2018-02-19T10:50:47.196Z,4.68
2018-02-19T10:53:14.806Z,4.81
2018-02-19T10:55:42.290Z,4.81
2018-02-19T10:58:09.811Z,4.69
2018-02-19T11:00:43.006Z,4.76
2018-02-19T11:03:10.528Z,4.81
2018-02-19T11:05:38.011Z,4.71
2018-02-19T11:08:05.531Z,4.82
2018-02-19T11:10:33.049Z,4.88
2018-02-19T11:13:00.580Z,4.71
2018-02-19T11:15:28.067Z,4.85
2018-02-19T11:17:55.647Z,4.88
2018-02-19T11:20:23.161Z,4.83
2018-02-19T11:22:50.766Z,4.78
2018-02-19T11:25:18.321Z,4.86
2018-02-19T11:27:45.960Z,4.81
2018-02-19T11:30:13.530Z,4.79
2018-02-19T11:32:41.021Z,4.92
2018-02-19T11:35:08.640Z,4.79
2018-02-19T11:37:36.265Z,4.77
2018-02-19T11:40:03.767Z,4.78
2018-02-19T11:42:31.488Z,4.82
2018-02-19T11:44:59.048Z,4.81
2018-02-19T11:47:26.656Z,4.86
2018-02-19T11:49:54.203Z,4.88
2018-02-19T11:52:21.724Z,4.91
2018-02-19T11:54:49.209Z,4.97
2018-02-19T11:57:16.766Z,5.06
2018-02-19T11:59:44.434Z,5.02
2018-02-19T12:02:11.927Z,5.00
2018-02-19T12:04:39.605Z,5.07
2018-02-19T12:07:07.091Z,5.15
2018-02-19T12:09:34.648Z,5.23
2018-02-19T12:12:02.141Z,5.15
2018-02-19T12:14:30.357Z,5.20
2018-02-19T12:16:57.857Z,5.32
2018-02-19T12:19:25.436Z,5.46
2018-02-19T12:21:52.961Z,5.50
2018-02-19T12:24:20.626Z,5.51
2018-02-19T12:26:48.156Z,5.57
2018-02-19T12:29:15.726Z,5.58
2018-02-19T12:31:43.339Z,5.67
2018-02-19T12:34:10.919Z,5.76
2018-02-19T12:36:38.437Z,5.77
2018-02-19T12:39:06.025Z,5.76
2018-02-19T12:41:33.554Z,5.70
2018-02-19T12:44:01.099Z,5.71
2018-02-19T12:46:28.610Z,5.63
2018-02-19T12:48:56.114Z,5.61
2018-02-19T12:51:23.600Z,5.44
2018-02-19T12:53:51.217Z,5.40
2018-02-19T12:56:18.724Z,5.34
2018-02-19T12:58:46.242Z,5.29
2018-02-19T13:01:13.729Z,5.25
2018-02-19T13:03:41.372Z,5.31
2018-02-19T13:06:08.862Z,5.39
2018-02-19T13:08:36.405Z,5.25
2018-02-19T13:11:03.900Z,5.17
2018-02-19T13:13:31.397Z,5.16
2018-02-19T13:15:59.105Z,5.18
2018-02-19T13:18:26.611Z,5.19
2018-02-19T13:20:54.144Z,5.15
2018-02-19T13:23:21.642Z,5.17
2018-02-19T13:25:49.286Z,5.13
2018-02-19T13:28:16.790Z,5.11
2018-02-19T13:30:44.292Z,5.07
2018-02-19T13:33:11.810Z,5.10
2018-02-19T13:35:39.402Z,5.06
2018-02-19T13:38:07.524Z,5.02
2018-02-19T13:40:35.020Z,4.95
2018-02-19T13:43:02.527Z,5.02
2018-02-19T13:45:30.120Z,5.07
2018-02-19T13:47:57.640Z,5.00
2018-02-19T13:50:25.140Z,4.83
2018-02-19T13:52:52.728Z,4.73
2018-02-19T13:55:20.256Z,4.77
2018-02-19T13:57:47.902Z,4.73
2018-02-19T14:00:15.520Z,4.69
2018-02-19T14:02:43.220Z,4.76
2018-02-19T14:05:10.753Z,4.78
2018-02-19T14:07:38.286Z,4.80
2018-02-19T14:10:05.830Z,4.81
2018-02-19T14:12:33.324Z,4.77
2018-02-19T14:15:00.846Z,4.73
2018-02-19T14:17:28.397Z,4.70
2018-02-19T14:19:55.939Z,4.78
2018-02-19T14:22:23.486Z,4.79
2018-02-19T14:24:51.121Z,4.84
2018-02-19T14:27:18.646Z,4.86
2018-02-19T14:29:46.160Z,4.90
2018-02-19T14:32:14.271Z,4.90
2018-02-19T14:34:41.790Z,4.91
2018-02-19T14:37:09.451Z,4.93
2018-02-19T14:39:37.967Z,4.94
2018-02-19T14:42:05.559Z,5.00
2018-02-19T14:44:33.111Z,4.89
2018-02-19T14:47:00.729Z,4.93
2018-02-19T14:49:28.404Z,4.86
2018-02-19T14:51:55.914Z,4.69
2018-02-19T14:54:23.555Z,4.69
2018-02-19T14:56:51.102Z,4.71
2018-02-19T14:59:18.917Z,4.73
2018-02-19T15:01:46.279Z,4.73
2018-02-19T15:04:13.808Z,4.75
2018-02-19T15:06:41.381Z,4.78
2018-02-19T15:09:08.874Z,4.71
2018-02-19T15:11:36.399Z,4.68
2018-02-19T15:14:03.892Z,4.72
2018-02-19T15:16:32.201Z,4.68
2018-02-19T15:18:59.773Z,4.70
2018-02-19T15:21:27.302Z,4.71
2018-02-19T15:23:54.833Z,4.76
2018-02-19T15:26:22.334Z,4.79
2018-02-19T15:28:49.856Z,4.82
2018-02-19T15:31:17.396Z,4.79
2018-02-19T15:33:44.993Z,4.71
2018-02-19T15:36:12.615Z,4.73
2018-02-19T15:38:40.132Z,4.76
2018-02-19T15:41:07.719Z,4.73
2018-02-19T15:43:35.258Z,4.66
2018-02-19T15:46:02.754Z,4.65
2018-02-19T15:48:30.296Z,4.66
2018-02-19T15:50:57.839Z,4.68
2018-02-19T15:53:25.371Z,4.63
2018-02-19T15:55:53.062Z,4.61
2018-02-19T15:58:20.576Z,4.64
2018-02-19T16:00:48.072Z,4.65
2018-02-19T16:03:15.654Z,4.62
2018-02-19T16:05:43.191Z,4.55
2018-02-19T16:08:10.767Z,4.57
2018-02-19T16:10:38.923Z,4.62
2018-02-19T16:13:06.430Z,4.55
2018-02-19T16:15:33.963Z,4.47
2018-02-19T16:18:01.515Z,4.54
2018-02-19T16:20:29.043Z,4.49
2018-02-19T16:22:56.595Z,4.45
2018-02-19T16:25:24.118Z,4.48
2018-02-19T16:27:51.645Z,4.44
2018-02-19T16:30:19.697Z,4.43
2018-02-19T16:32:47.222Z,4.44
2018-02-19T16:35:14.731Z,4.44
2018-02-19T16:37:42.250Z,4.44
2018-02-19T16:40:09.818Z,4.49
2018-02-19T16:42:37.373Z,4.53
2018-02-19T16:45:05.003Z,4.56
2018-02-19T16:47:32.621Z,4.61
2018-02-19T16:50:00.200Z,4.59
2018-02-19T16:52:27.795Z,4.54
2018-02-19T16:54:55.343Z,4.43
2018-02-19T16:57:22.924Z,4.41
2018-02-19T16:59:50.450Z,4.42
2018-02-19T17:02:17.951Z,4.40
2018-02-19T17:04:45.465Z,4.39
2018-02-19T17:07:13.546Z,4.48
2018-02-19T17:09:41.079Z,4.48
2018-02-19T17:12:08.745Z,4.35
2018-02-19T17:14:36.237Z,4.34
2018-02-19T17:17:03.750Z,4.34
2018-02-19T17:19:31.235Z,4.34
2018-02-19T17:21:58.856Z,4.32
2018-02-19T17:24:26.385Z,4.36
2018-02-19T17:26:54.498Z,4.30
2018-02-19T17:29:22.031Z,4.33
2018-02-19T17:31:49.589Z,4.29
2018-02-19T17:34:17.100Z,4.29
2018-02-19T17:36:44.781Z,4.21
2018-02-19T17:39:12.297Z,4.22
2018-02-19T17:41:39.791Z,4.35
2018-02-19T17:44:07.334Z,4.25
2018-02-19T17:46:34.861Z,4.23
2018-02-19T17:49:02.389Z,4.29
2018-02-19T17:51:29.894Z,4.37
2018-02-19T17:53:57.419Z,4.28
2018-02-19T17:56:25.187Z,4.27
2018-02-19T17:58:52.854Z,4.18
2018-02-19T18:01:20.519Z,4.17
2018-02-19T18:03:48.040Z,4.11
2018-02-19T18:06:15.581Z,4.13
2018-02-19T18:08:43.182Z,4.07
2018-02-19T18:11:10.721Z,4.03
2018-02-19T18:13:38.310Z,4.03
2018-02-19T18:16:05.849Z,4.02
2018-02-19T18:18:33.458Z,4.01
2018-02-19T18:21:00.964Z,4.00
2018-02-19T18:23:28.492Z,4.04
2018-02-19T18:25:56.886Z,4.11
2018-02-19T18:28:24.370Z,4.05
2018-02-19T18:30:51.906Z,4.03
2018-02-19T18:33:19.404Z,4.15
2018-02-19T18:35:46.940Z,4.11
2018-02-19T18:38:14.450Z,4.00
2018-02-19T18:40:41.981Z,4.06
2018-02-19T18:43:09.480Z,4.08
2018-02-19T18:45:37.051Z,4.15
2018-02-19T18:48:04.584Z,4.21
2018-02-19T18:50:32.121Z,4.16
2018-02-19T18:52:59.671Z,4.12
2018-02-19T18:55:27.160Z,4.07
2018-02-19T18:57:54.710Z,4.09
2018-02-19T19:00:22.334Z,4.07
2018-02-19T19:02:49.851Z,4.04
2018-02-19T19:05:17.368Z,4.04
2018-02-19T19:07:56.664Z,4.03
2018-02-19T19:13:27.490Z,3.81
2018-02-19T19:15:55.038Z,3.73
2018-02-19T19:18:22.674Z,3.73
2018-02-19T19:20:50.203Z,3.67
2018-02-19T19:23:17.855Z,3.76
2018-02-19T19:25:45.420Z,3.77
2018-02-19T19:28:12.961Z,3.78
2018-02-19T19:30:40.518Z,3.82
2018-02-19T19:33:08.009Z,3.84
2018-02-19T19:35:35.573Z,3.86
2018-02-19T19:38:03.093Z,3.87
2018-02-19T19:40:30.601Z,3.84
2018-02-19T19:42:58.137Z,3.80
2018-02-19T19:45:26.272Z,3.77
2018-02-19T19:47:54.027Z,3.83
2018-02-19T19:50:21.559Z,3.79
2018-02-19T19:52:49.086Z,3.81
2018-02-19T19:55:16.602Z,3.82
2018-02-19T19:57:44.131Z,3.85
2018-02-19T20:00:11.644Z,3.84
2018-02-19T20:02:39.170Z,3.83
2018-02-19T20:05:06.701Z,3.88
2018-02-19T20:07:34.185Z,3.93
2018-02-19T20:10:01.777Z,3.92
2018-02-19T20:12:29.305Z,3.92
2018-02-19T20:14:56.817Z,3.87
2018-02-19T20:17:24.342Z,3.83
2018-02-19T20:19:51.919Z,3.86
2018-02-19T20:22:19.442Z,3.87
2018-02-19T20:24:46.951Z,3.89
2018-02-19T20:27:14.467Z,3.84
2018-02-19T20:29:42.190Z,3.85
2018-02-19T20:32:09.805Z,3.83
2018-02-19T20:34:37.341Z,3.82
2018-02-19T20:37:04.867Z,3.83
2018-02-19T20:39:32.543Z,3.88
2018-02-19T20:42:00.102Z,3.89
2018-02-19T20:44:27.647Z,3.88
2018-02-19T20:46:55.159Z,3.91
2018-02-19T20:49:22.711Z,3.92
2018-02-19T20:51:50.215Z,3.92
2018-02-19T20:54:17.713Z,3.89
2018-02-19T20:56:45.235Z,3.83
2018-02-19T20:59:12.752Z,3.84
2018-02-19T21:01:40.329Z,3.92
2018-02-19T21:04:07.872Z,3.93
2018-02-19T21:06:35.407Z,3.87
2018-02-19T21:09:02.992Z,3.89
2018-02-19T21:11:30.499Z,3.81
2018-02-19T21:13:58.023Z,3.84
2018-02-19T21:16:26.168Z,3.85
2018-02-19T21:18:53.689Z,3.87
2018-02-19T21:21:21.202Z,3.93
2018-02-19T21:23:48.876Z,3.93
2018-02-19T21:26:16.416Z,3.92
2018-02-19T21:28:43.978Z,3.86
2018-02-19T21:31:11.564Z,3.92
2018-02-19T21:33:39.070Z,3.84
2018-02-19T21:36:06.709Z,3.86
2018-02-19T21:38:34.208Z,3.86
2018-02-19T21:41:05.556Z,3.91
2018-02-19T21:43:33.066Z,3.94
2018-02-19T21:46:00.601Z,3.99
2018-02-19T21:48:28.154Z,3.94
2018-02-19T21:50:55.656Z,3.96
2018-02-19T21:53:23.183Z,3.99
2018-02-19T21:55:50.666Z,4.11
2018-02-19T21:58:18.174Z,4.04
2018-02-19T22:00:45.661Z,4.10
2018-02-19T22:03:13.239Z,4.15
2018-02-19T22:05:40.800Z,4.14
2018-02-19T22:08:08.333Z,3.97
2018-02-19T22:10:35.838Z,4.12
2018-02-19T22:13:03.387Z,4.17
2018-02-19T22:15:31.044Z,4.12
2018-02-19T22:17:58.678Z,4.15
2018-02-19T22:20:26.283Z,4.07
2018-02-19T22:22:53.867Z,4.09
2018-02-19T22:25:21.529Z,4.13
2018-02-19T22:27:49.065Z,4.04
2018-02-19T22:30:16.584Z,4.08
2018-02-19T22:32:44.098Z,4.15
2018-02-19T22:35:11.601Z,4.14
2018-02-19T22:37:39.098Z,4.05
2018-02-19T22:40:06.608Z,4.02
2018-02-19T22:42:34.139Z,3.99
2018-02-19T22:45:01.653Z,4.02
2018-02-19T22:47:29.131Z,4.00
2018-02-19T22:49:56.645Z,3.98
2018-02-19T22:52:24.150Z,4.02
2018-02-19T22:54:52.496Z,3.99
2018-02-19T22:57:20.175Z,3.95
2018-02-19T22:59:47.775Z,3.96
2018-02-19T23:02:15.285Z,3.86
2018-02-19T23:04:42.812Z,3.86
2018-02-19T23:07:10.407Z,3.79
2018-02-19T23:09:38.213Z,3.75
2018-02-19T23:12:05.736Z,3.73
2018-02-19T23:14:33.248Z,3.75
2018-02-19T23:17:00.774Z,3.83
2018-02-19T23:19:28.303Z,3.82
2018-02-19T23:21:55.821Z,3.83
2018-02-19T23:24:23.345Z,3.78
2018-02-19T23:26:50.864Z,3.83
2018-02-19T23:29:18.374Z,3.89
2018-02-19T23:31:46.486Z,3.86
2018-02-19T23:34:14.154Z,3.90
2018-02-19T23:36:41.674Z,3.89
2018-02-19T23:39:09.658Z,3.90
2018-02-19T23:41:37.515Z,3.83
2018-02-19T23:44:05.075Z,3.84
2018-02-19T23:46:33.237Z,3.83
2018-02-19T23:49:00.742Z,3.84
2018-02-19T23:51:28.246Z,3.85
2018-02-19T23:53:55.761Z,3.82
2018-02-19T23:56:23.282Z,3.82
2018-02-19T23:58:50.799Z,3.83
